createdAt,value
2019-03-02T00:00:16.774Z,946.27
2019-03-02T00:02:43.080Z,946.27
2019-03-02T00:05:09.394Z,946.32
2019-03-02T00:07:35.705Z,946.35
2019-03-02T00:10:02.017Z,946.34
2019-03-02T00:12:28.697Z,946.37
2019-03-02T00:14:55.068Z,946.33
2019-03-02T00:17:20.957Z,946.33
2019-03-02T00:19:47.260Z,946.35
2019-03-02T00:22:13.571Z,946.31
2019-03-02T00:24:39.898Z,946.26
2019-03-02T00:27:06.208Z,946.29
2019-03-02T00:29:32.513Z,946.34
2019-03-02T00:31:58.854Z,946.36
2019-03-02T00:34:25.183Z,946.37
2019-03-02T00:36:55.298Z,946.28
2019-03-02T00:39:19.144Z,946.33
2019-03-02T00:41:44.108Z,946.25
2019-03-02T00:44:10.416Z,946.24
2019-03-02T00:46:36.725Z,946.11
2019-03-02T00:49:03.037Z,946.18
2019-03-02T00:51:29.349Z,946.21
2019-03-02T00:53:55.666Z,946.12
2019-03-02T00:56:21.973Z,946.08
2019-03-02T00:58:48.296Z,946.14
2019-03-02T01:01:14.591Z,946.10
2019-03-02T01:03:40.922Z,946.12
2019-03-02T01:06:08.901Z,946.14
2019-03-02T01:08:35.027Z,946.11
2019-03-02T01:10:59.869Z,946.11
2019-03-02T01:13:26.165Z,946.04
2019-03-02T01:15:52.471Z,946.00
2019-03-02T01:18:18.783Z,946.04
2019-03-02T01:20:45.098Z,946.01
2019-03-02T01:23:11.396Z,945.92
2019-03-02T01:25:37.711Z,945.98
2019-03-02T01:28:06.676Z,946.00
2019-03-02T01:30:30.974Z,945.99
2019-03-02T01:32:56.642Z,945.96
2019-03-02T01:35:22.953Z,946.01
2019-03-02T01:37:49.255Z,945.95
2019-03-02T01:40:15.559Z,945.97
2019-03-02T01:42:41.870Z,945.98
2019-03-02T01:45:08.177Z,945.92
2019-03-02T01:47:34.514Z,945.94
2019-03-02T01:50:00.822Z,945.86
2019-03-02T01:52:30.491Z,945.88
2019-03-02T01:54:55.741Z,945.87
2019-03-02T01:57:19.753Z,945.93
2019-03-02T01:59:46.079Z,945.86
2019-03-02T02:02:12.380Z,945.87
2019-03-02T02:04:38.696Z,945.81
2019-03-02T02:07:05.005Z,945.76
2019-03-02T02:09:31.335Z,945.78
2019-03-02T02:11:57.648Z,945.76
2019-03-02T02:14:23.951Z,945.75
2019-03-02T02:16:50.265Z,945.78
2019-03-02T02:19:16.573Z,945.81
2019-03-02T02:21:42.937Z,945.84
2019-03-02T02:24:09.229Z,945.89
2019-03-02T02:26:35.537Z,945.90
2019-03-02T02:29:04.577Z,945.98
2019-03-02T02:31:28.162Z,945.98
2019-03-02T02:33:54.468Z,946.03
2019-03-02T02:36:20.786Z,946.07
2019-03-02T02:38:54.032Z,946.09
2019-03-02T02:41:21.956Z,946.08
2019-03-02T02:43:39.723Z,946.16
2019-03-02T02:46:06.042Z,946.09
2019-03-02T02:48:32.761Z,946.12
2019-03-02T02:50:58.670Z,946.20
2019-03-02T02:53:24.966Z,946.14
2019-03-02T02:55:51.272Z,946.13
2019-03-02T02:58:19.209Z,946.17
2019-03-02T03:00:43.917Z,946.11
2019-03-02T03:03:10.230Z,946.14
2019-03-02T03:05:36.550Z,946.15
2019-03-02T03:08:02.849Z,946.05
2019-03-02T03:10:29.892Z,946.05
2019-03-02T03:12:56.699Z,946.03
2019-03-02T03:15:21.776Z,946.09
2019-03-02T03:17:48.074Z,946.06
2019-03-02T03:20:14.383Z,946.04
2019-03-02T03:22:45.518Z,946.09
2019-03-02T03:25:07.024Z,946.13
2019-03-02T03:27:33.337Z,946.05
2019-03-02T03:29:59.651Z,946.01
2019-03-02T03:32:25.955Z,946.01
2019-03-02T03:34:52.262Z,946.03
2019-03-02T03:37:18.572Z,945.95
2019-03-02T03:39:46.330Z,945.89
2019-03-02T03:42:11.194Z,946.01
2019-03-02T03:44:37.509Z,946.19
2019-03-02T03:47:03.807Z,946.19
2019-03-02T03:49:34.102Z,946.16
2019-03-02T03:51:56.455Z,946.15
2019-03-02T03:54:22.762Z,946.15
2019-03-02T03:56:49.077Z,946.18
2019-03-02T03:59:19.159Z,946.11
2019-03-02T04:01:41.694Z,946.17
2019-03-02T04:04:08.001Z,946.22
2019-03-02T04:06:34.315Z,946.21
2019-03-02T04:09:03.204Z,946.25
2019-03-02T04:11:26.947Z,946.22
2019-03-02T04:13:53.261Z,946.13
2019-03-02T04:16:20.581Z,946.13
2019-03-02T04:18:50.140Z,946.26
2019-03-02T04:21:12.206Z,946.30
2019-03-02T04:23:38.533Z,946.28
2019-03-02T04:26:04.829Z,946.35
2019-03-02T04:28:31.582Z,946.33
2019-03-02T04:30:57.445Z,946.41
2019-03-02T04:33:23.752Z,946.46
2019-03-02T04:35:50.066Z,946.52
2019-03-02T04:38:16.376Z,946.52
2019-03-02T04:40:42.692Z,946.52
2019-03-02T04:43:09.003Z,946.62
2019-03-02T04:45:36.533Z,946.68
2019-03-02T04:48:03.384Z,946.73
2019-03-02T04:50:28.442Z,946.68
2019-03-02T04:52:54.257Z,946.67
2019-03-02T04:55:20.560Z,946.67
2019-03-02T04:57:46.868Z,946.62
2019-03-02T05:00:13.182Z,946.63
2019-03-02T05:02:39.494Z,946.64
2019-03-02T05:05:08.442Z,946.63
2019-03-02T05:07:32.122Z,946.67
2019-03-02T05:09:58.430Z,946.66
2019-03-02T05:12:24.739Z,946.71
2019-03-02T05:14:51.054Z,946.70
2019-03-02T05:17:17.369Z,946.73
2019-03-02T05:19:43.680Z,946.73
2019-03-02T05:22:09.988Z,946.69
2019-03-02T05:24:36.301Z,946.72
2019-03-02T05:27:02.612Z,946.75
2019-03-02T05:29:28.961Z,946.80
2019-03-02T05:31:55.272Z,946.81
2019-03-02T05:34:21.578Z,946.86
2019-03-02T05:36:47.884Z,946.84
2019-03-02T05:39:17.330Z,946.88
2019-03-02T05:41:40.506Z,946.88
2019-03-02T05:44:06.813Z,946.94
2019-03-02T05:46:33.139Z,946.96
2019-03-02T05:48:59.450Z,947.00
2019-03-02T05:51:25.761Z,947.01
2019-03-02T05:53:52.152Z,947.00
2019-03-02T05:56:18.452Z,946.99
2019-03-02T05:58:47.693Z,946.96
2019-03-02T06:01:11.088Z,946.91
2019-03-02T06:03:37.398Z,946.97
2019-03-02T06:06:03.708Z,947.04
2019-03-02T06:08:32.167Z,947.10
2019-03-02T06:10:58.056Z,947.17
2019-03-02T06:13:24.738Z,947.19
2019-03-02T06:15:49.285Z,947.27
2019-03-02T06:18:15.593Z,947.38
2019-03-02T06:20:41.903Z,947.35
2019-03-02T06:23:08.235Z,947.36
2019-03-02T06:25:34.544Z,947.33
2019-03-02T06:28:00.848Z,947.39
2019-03-02T06:30:27.160Z,947.52
2019-03-02T06:32:53.467Z,947.49
2019-03-02T06:35:19.979Z,947.46
2019-03-02T06:37:46.290Z,947.55
2019-03-02T06:40:16.130Z,947.50
2019-03-02T06:42:41.844Z,947.50
2019-03-02T06:45:05.665Z,947.53
2019-03-02T06:47:33.407Z,947.45
2019-03-02T06:49:59.339Z,947.46
2019-03-02T06:52:25.352Z,947.61
2019-03-02T06:54:50.677Z,947.67
2019-03-02T06:57:16.989Z,947.76
2019-03-02T06:59:43.292Z,947.71
2019-03-02T07:02:09.608Z,947.75
2019-03-02T07:04:35.915Z,947.74
2019-03-02T07:07:02.223Z,947.77
2019-03-02T07:09:28.533Z,947.75
2019-03-02T07:11:54.865Z,947.75
2019-03-02T07:14:21.181Z,947.83
2019-03-02T07:16:47.486Z,947.81
2019-03-02T07:19:16.735Z,947.78
2019-03-02T07:21:41.473Z,947.79
2019-03-02T07:24:06.528Z,947.87
2019-03-02T07:26:32.838Z,947.82
2019-03-02T07:28:59.145Z,947.80
2019-03-02T07:31:25.457Z,947.77
2019-03-02T07:33:51.766Z,947.76
2019-03-02T07:36:18.093Z,947.75
2019-03-02T07:38:44.402Z,947.73
2019-03-02T07:41:10.719Z,947.76
2019-03-02T07:43:37.025Z,947.84
2019-03-02T07:46:03.468Z,947.78
2019-03-02T07:48:33.154Z,947.83
2019-03-02T07:50:56.057Z,947.86
2019-03-02T07:53:25.122Z,947.83
2019-03-02T07:55:48.825Z,947.79
2019-03-02T07:58:16.530Z,947.78
2019-03-02T08:00:41.803Z,947.81
2019-03-02T08:03:07.769Z,947.88
2019-03-02T08:05:34.119Z,947.87
2019-03-02T08:08:00.435Z,947.83
2019-03-02T08:10:26.763Z,947.90
2019-03-02T08:12:53.072Z,947.97
2019-03-02T08:15:20.186Z,948.00
2019-03-02T08:17:48.933Z,948.01
2019-03-02T08:20:11.996Z,947.93
2019-03-02T08:22:38.314Z,947.94
2019-03-02T08:25:04.616Z,948.05
2019-03-02T08:27:34.474Z,947.96
2019-03-02T08:29:57.480Z,947.97
2019-03-02T08:32:23.602Z,947.91
2019-03-02T08:34:49.916Z,947.92
2019-03-02T08:37:16.627Z,947.86
2019-03-02T08:39:42.776Z,947.92
2019-03-02T08:42:11.851Z,947.91
2019-03-02T08:44:35.183Z,947.83
2019-03-02T08:47:01.497Z,947.91
2019-03-02T08:49:27.811Z,947.84
2019-03-02T08:51:54.123Z,947.81
2019-03-02T08:54:21.580Z,947.75
2019-03-02T08:56:47.649Z,947.80
2019-03-02T08:59:13.070Z,947.84
2019-03-02T09:01:39.377Z,947.74
2019-03-02T09:04:05.714Z,947.72
2019-03-02T09:06:34.690Z,947.73
2019-03-02T09:08:58.358Z,947.70
2019-03-02T09:11:24.669Z,947.77
2019-03-02T09:13:51.013Z,947.69
2019-03-02T09:16:17.335Z,947.68
2019-03-02T09:18:45.730Z,947.70
2019-03-02T09:21:12.287Z,947.65
2019-03-02T09:23:37.104Z,947.68
2019-03-02T09:26:05.929Z,947.67
2019-03-02T09:28:32.242Z,947.54
2019-03-02T09:30:58.831Z,947.54
2019-03-02T09:33:28.463Z,947.60
2019-03-02T09:35:54.811Z,947.57
2019-03-02T09:38:20.932Z,947.54
2019-03-02T09:40:45.888Z,947.55
2019-03-02T09:43:12.922Z,947.44
2019-03-02T09:45:36.589Z,947.54
2019-03-02T09:48:02.957Z,947.45
2019-03-02T09:50:29.283Z,947.18
2019-03-02T09:52:55.992Z,947.48
2019-03-02T09:55:21.951Z,947.46
2019-03-02T09:57:48.440Z,947.41
2019-03-02T10:00:14.585Z,947.49
2019-03-02T10:02:40.905Z,947.52
2019-03-02T10:05:07.232Z,947.50
2019-03-02T10:07:34.493Z,947.51
2019-03-02T10:09:59.860Z,947.49
2019-03-02T10:12:26.175Z,947.59
2019-03-02T10:14:52.480Z,947.54
2019-03-02T10:17:18.816Z,947.56
2019-03-02T10:19:45.128Z,947.58
2019-03-02T10:22:11.435Z,947.52
2019-03-02T10:24:39.599Z,947.64
2019-03-02T10:27:05.967Z,947.71
2019-03-02T10:29:32.264Z,947.66
2019-03-02T10:31:56.709Z,947.45
2019-03-02T10:34:23.038Z,947.65
2019-03-02T10:36:49.348Z,947.62
2019-03-02T10:39:15.661Z,947.60
2019-03-02T10:41:41.974Z,947.63
2019-03-02T10:44:08.284Z,947.54
2019-03-02T10:46:34.595Z,947.50
2019-03-02T10:49:00.907Z,947.50
2019-03-02T10:51:27.229Z,947.57
2019-03-02T10:53:55.928Z,947.47
2019-03-02T10:56:20.859Z,947.49
2019-03-02T10:58:46.161Z,947.47
2019-03-02T11:01:12.490Z,947.44
2019-03-02T11:03:38.827Z,947.45
2019-03-02T11:06:07.086Z,947.40
2019-03-02T11:08:31.459Z,947.45
2019-03-02T11:10:57.769Z,947.44
2019-03-02T11:13:24.076Z,947.35
2019-03-02T11:15:52.307Z,947.46
2019-03-02T11:18:17.898Z,947.60
2019-03-02T11:20:43.059Z,947.41
2019-03-02T11:23:09.383Z,947.52
2019-03-02T11:25:36.134Z,947.58
2019-03-02T11:28:02.523Z,947.55
2019-03-02T11:30:28.835Z,947.39
2019-03-02T11:32:56.037Z,947.47
2019-03-02T11:35:21.616Z,947.38
2019-03-02T11:37:49.440Z,947.32
2019-03-02T11:40:14.288Z,947.39
2019-03-02T11:42:40.769Z,947.38
2019-03-02T11:45:07.096Z,947.28
2019-03-02T11:47:36.649Z,947.34
2019-03-02T11:50:01.532Z,947.45
2019-03-02T11:52:26.044Z,947.41
2019-03-02T11:54:52.360Z,947.46
2019-03-02T11:57:21.217Z,947.44
2019-03-02T11:59:45.504Z,947.46
2019-03-02T12:02:15.646Z,947.51
2019-03-02T12:04:37.693Z,947.49
2019-03-02T12:07:04.010Z,947.46
2019-03-02T12:09:30.331Z,947.47
2019-03-02T12:11:56.653Z,947.39
2019-03-02T12:14:23.002Z,947.44
2019-03-02T12:16:49.345Z,947.43
2019-03-02T12:19:15.674Z,947.40
2019-03-02T12:21:41.991Z,947.36
2019-03-02T12:24:15.025Z,947.47
2019-03-02T12:26:34.649Z,947.28
2019-03-02T12:29:00.941Z,947.29
2019-03-02T12:31:28.147Z,947.26
2019-03-02T12:33:54.142Z,947.36
2019-03-02T12:36:20.105Z,947.44
2019-03-02T12:38:48.031Z,947.42
2019-03-02T12:41:15.730Z,947.40
2019-03-02T12:43:40.612Z,947.29
2019-03-02T12:46:09.100Z,947.42
2019-03-02T12:48:31.688Z,947.49
2019-03-02T12:50:59.006Z,947.39
2019-03-02T12:53:28.396Z,947.34
2019-03-02T12:55:53.174Z,947.38
2019-03-02T12:58:20.079Z,947.41
2019-03-02T13:00:44.518Z,947.51
2019-03-02T13:03:09.675Z,947.56
2019-03-02T13:05:36.513Z,947.58
2019-03-02T13:08:02.303Z,947.57
2019-03-02T13:10:28.620Z,947.54
2019-03-02T13:12:54.925Z,947.56
2019-03-02T13:15:21.237Z,947.58
2019-03-02T13:17:47.553Z,947.68
2019-03-02T13:20:13.870Z,947.60
2019-03-02T13:22:40.180Z,947.60
2019-03-02T13:25:06.495Z,947.58
2019-03-02T13:27:32.838Z,947.66
2019-03-02T13:30:01.678Z,947.62
2019-03-02T13:32:25.858Z,947.62
2019-03-02T13:34:52.169Z,947.59
2019-03-02T13:37:20.236Z,947.71
2019-03-02T13:39:47.151Z,947.64
2019-03-02T13:42:11.750Z,947.75
2019-03-02T13:44:38.887Z,947.71
2019-03-02T13:47:07.109Z,947.75
2019-03-02T13:49:33.818Z,947.83
2019-03-02T13:51:57.081Z,947.80
2019-03-02T13:54:23.401Z,947.80
2019-03-02T13:56:49.713Z,947.88
2019-03-02T13:59:16.031Z,947.83
2019-03-02T14:01:42.562Z,947.79
2019-03-02T14:04:08.879Z,947.69
2019-03-02T14:06:37.554Z,947.72
2019-03-02T14:09:01.790Z,947.74
2019-03-02T14:11:28.107Z,947.78
2019-03-02T14:13:54.412Z,947.86
2019-03-02T14:16:20.727Z,947.85
2019-03-02T14:18:47.062Z,947.85
2019-03-02T14:21:15.768Z,947.89
2019-03-02T14:23:39.735Z,947.88
2019-03-02T14:26:06.050Z,947.87
2019-03-02T14:28:34.904Z,947.90
2019-03-02T14:31:00.723Z,947.90
2019-03-02T14:33:25.659Z,947.86
2019-03-02T14:35:53.322Z,947.82
2019-03-02T14:38:20.198Z,947.96
2019-03-02T14:40:47.096Z,947.96
2019-03-02T14:43:10.326Z,948.02
2019-03-02T14:45:36.637Z,948.00
2019-03-02T14:48:02.952Z,948.00
2019-03-02T14:50:29.270Z,948.04
2019-03-02T14:52:55.580Z,948.15
2019-03-02T14:55:21.893Z,948.13
2019-03-02T14:57:48.214Z,948.18
2019-03-02T15:00:14.527Z,948.13
2019-03-02T15:02:40.845Z,948.19
2019-03-02T15:05:07.180Z,948.31
2019-03-02T15:07:33.511Z,948.38
2019-03-02T15:09:59.847Z,948.41
2019-03-02T15:12:26.181Z,948.31
2019-03-02T15:14:52.494Z,948.36
2019-03-02T15:17:18.817Z,948.42
2019-03-02T15:19:56.209Z,948.40
2019-03-02T15:22:11.432Z,948.40
2019-03-02T15:24:37.781Z,948.41
2019-03-02T15:27:04.081Z,948.45
2019-03-02T15:29:30.395Z,948.58
2019-03-02T15:31:56.710Z,948.60
2019-03-02T15:34:23.017Z,948.63
2019-03-02T15:36:49.330Z,948.57
2019-03-02T15:39:16.478Z,948.63
2019-03-02T15:41:42.271Z,948.58
2019-03-02T15:44:10.734Z,948.60
2019-03-02T15:46:35.873Z,948.67
2019-03-02T15:49:03.501Z,948.74
2019-03-02T15:51:30.835Z,948.72
2019-03-02T15:53:56.590Z,948.78
2019-03-02T15:56:20.074Z,948.75
2019-03-02T15:58:46.160Z,948.81
2019-03-02T16:01:12.469Z,948.84
2019-03-02T16:03:38.788Z,948.90
2019-03-02T16:06:05.102Z,948.97
2019-03-02T16:08:31.413Z,948.90
2019-03-02T16:10:57.735Z,948.98
2019-03-02T16:13:24.475Z,948.98
2019-03-02T16:15:50.371Z,949.00
2019-03-02T16:18:17.363Z,949.08
2019-03-02T16:20:44.433Z,949.16
2019-03-02T16:23:10.806Z,949.19
2019-03-02T16:25:35.972Z,949.28
2019-03-02T16:28:05.565Z,949.35
2019-03-02T16:30:31.918Z,949.40
2019-03-02T16:32:55.379Z,949.43
2019-03-02T16:35:24.439Z,949.58
2019-03-02T16:37:49.941Z,949.54
2019-03-02T16:40:15.862Z,949.57
2019-03-02T16:42:39.968Z,949.64
2019-03-02T16:45:06.306Z,949.71
2019-03-02T16:47:32.613Z,949.83
2019-03-02T16:49:58.918Z,949.88
2019-03-02T16:52:25.226Z,949.85
2019-03-02T16:54:51.552Z,949.93
2019-03-02T16:57:17.864Z,949.98
2019-03-02T16:59:44.945Z,950.06
2019-03-02T17:02:10.575Z,950.07
2019-03-02T17:04:36.887Z,950.15
2019-03-02T17:07:03.210Z,950.21
2019-03-02T17:09:29.520Z,950.24
2019-03-02T17:11:55.830Z,950.25
2019-03-02T17:14:22.145Z,950.26
2019-03-02T17:16:48.454Z,950.31
2019-03-02T17:19:14.769Z,950.33
2019-03-02T17:21:41.081Z,950.35
2019-03-02T17:24:07.386Z,950.37
2019-03-02T17:26:33.694Z,950.44
2019-03-02T17:29:00.025Z,950.47
2019-03-02T17:31:26.384Z,950.55
2019-03-02T17:33:52.714Z,950.55
2019-03-02T17:36:20.288Z,950.57
2019-03-02T17:38:48.021Z,950.60
2019-03-02T17:41:14.904Z,950.64
2019-03-02T17:43:40.012Z,950.76
2019-03-02T17:46:07.567Z,950.72
2019-03-02T17:48:30.585Z,950.83
2019-03-02T17:50:58.549Z,950.81
2019-03-02T17:53:27.144Z,950.84
2019-03-02T17:55:49.546Z,950.90
2019-03-02T17:58:15.857Z,950.93
2019-03-02T18:00:42.192Z,950.87
2019-03-02T18:03:08.509Z,950.94
2019-03-02T18:05:34.818Z,950.98
2019-03-02T18:08:01.126Z,951.02
2019-03-02T18:10:27.437Z,951.02
2019-03-02T18:12:53.804Z,951.05
2019-03-02T18:15:22.068Z,951.06
2019-03-02T18:17:46.424Z,951.14
2019-03-02T18:20:15.881Z,951.21
2019-03-02T18:22:39.071Z,951.18
2019-03-02T18:25:07.777Z,951.27
2019-03-02T18:27:33.169Z,951.26
2019-03-02T18:29:58.012Z,951.23
2019-03-02T18:32:24.325Z,951.23
2019-03-02T18:34:50.666Z,951.28
2019-03-02T18:37:16.979Z,951.27
2019-03-02T18:39:43.752Z,951.29
2019-03-02T18:42:09.622Z,951.31
2019-03-02T18:44:35.987Z,951.29
2019-03-02T18:47:02.293Z,951.30
2019-03-02T18:49:28.600Z,951.32
2019-03-02T18:51:54.906Z,951.32
2019-03-02T18:54:21.214Z,951.31
2019-03-02T18:56:48.995Z,951.35
2019-03-02T18:59:13.833Z,951.37
2019-03-02T19:01:40.136Z,951.44
2019-03-02T19:04:06.445Z,951.47
2019-03-02T19:06:32.797Z,951.48
2019-03-02T19:08:59.084Z,951.48
2019-03-02T19:11:25.393Z,951.51
2019-03-02T19:13:51.712Z,951.61
2019-03-02T19:16:18.032Z,951.59
2019-03-02T19:18:44.344Z,951.68
2019-03-02T19:21:10.658Z,951.69
2019-03-02T19:23:36.987Z,951.73
2019-03-02T19:26:03.322Z,951.82
2019-03-02T19:28:29.615Z,951.79
2019-03-02T19:30:55.928Z,951.80
2019-03-02T19:33:22.232Z,951.85
2019-03-02T19:35:48.545Z,951.85
2019-03-02T19:38:14.850Z,951.88
2019-03-02T19:40:41.161Z,951.95
2019-03-02T19:43:07.471Z,951.96
2019-03-02T19:45:33.786Z,952.03
2019-03-02T19:48:01.137Z,952.07
2019-03-02T19:50:27.497Z,952.01
2019-03-02T19:52:53.837Z,952.08
2019-03-02T19:55:20.169Z,952.14
2019-03-02T19:57:46.469Z,952.15
2019-03-02T20:00:12.780Z,952.12
2019-03-02T20:02:39.088Z,952.11
2019-03-02T20:05:05.425Z,952.14
2019-03-02T20:07:31.733Z,952.22
2019-03-02T20:09:58.083Z,952.16
2019-03-02T20:12:24.396Z,952.22
2019-03-02T20:14:50.706Z,952.24
2019-03-02T20:17:17.023Z,952.22
2019-03-02T20:19:44.567Z,952.33
2019-03-02T20:22:13.553Z,952.30
2019-03-02T20:24:49.752Z,952.40
2019-03-02T20:27:11.262Z,952.41
2019-03-02T20:29:43.648Z,952.46
2019-03-02T20:32:14.076Z,952.48
2019-03-02T20:34:40.187Z,952.43
2019-03-02T20:37:06.498Z,952.43
2019-03-02T20:39:32.817Z,952.47
2019-03-02T20:41:59.183Z,952.51
2019-03-02T20:44:25.518Z,952.57
2019-03-02T20:46:51.925Z,952.56
2019-03-02T20:49:18.238Z,952.56
2019-03-02T20:51:44.639Z,952.61
2019-03-02T20:54:10.957Z,952.56
2019-03-02T20:56:37.265Z,952.56
2019-03-02T20:59:03.578Z,952.65
2019-03-02T21:01:30.480Z,952.57
2019-03-02T21:03:56.786Z,952.54
2019-03-02T21:06:23.133Z,952.58
2019-03-02T21:08:49.435Z,952.60
2019-03-02T21:11:16.879Z,952.57
2019-03-02T21:13:43.201Z,952.57
2019-03-02T21:16:09.511Z,952.66
2019-03-02T21:18:35.819Z,952.70
2019-03-02T21:21:02.142Z,952.63
2019-03-02T21:23:28.467Z,952.68
2019-03-02T21:25:54.772Z,952.67
2019-03-02T21:28:21.083Z,952.68
2019-03-02T21:30:47.397Z,952.72
2019-03-02T21:33:15.060Z,952.67
2019-03-02T21:35:40.043Z,952.72
2019-03-02T21:38:06.351Z,952.72
2019-03-02T21:40:32.696Z,952.68
2019-03-02T21:42:58.997Z,952.73
2019-03-02T21:45:25.306Z,952.76
2019-03-02T21:47:51.624Z,952.74
2019-03-02T21:50:17.935Z,952.76
2019-03-02T21:52:44.249Z,952.76
2019-03-02T21:55:10.560Z,952.75
2019-03-02T21:57:36.864Z,952.85
2019-03-02T22:00:03.194Z,952.80
2019-03-02T22:02:29.504Z,952.88
2019-03-02T22:04:55.816Z,952.90
2019-03-02T22:07:22.126Z,952.96
2019-03-02T22:09:48.456Z,952.96
2019-03-02T22:12:14.767Z,953.01
2019-03-02T22:14:41.071Z,952.99
2019-03-02T22:17:07.387Z,952.97
2019-03-02T22:19:33.703Z,952.98
2019-03-02T22:22:00.013Z,953.03
2019-03-02T22:24:26.331Z,953.01
2019-03-02T22:26:52.645Z,953.05
2019-03-02T22:29:18.948Z,953.03
2019-03-02T22:31:45.265Z,953.06
2019-03-02T22:34:11.576Z,953.07
2019-03-02T22:36:37.898Z,953.03
2019-03-02T22:39:04.209Z,953.01
2019-03-02T22:41:30.519Z,953.02
2019-03-02T22:43:56.859Z,952.96
2019-03-02T22:46:23.128Z,953.01
2019-03-02T22:48:49.438Z,953.00
2019-03-02T22:51:15.748Z,953.04
2019-03-02T22:53:42.061Z,953.07
2019-03-02T22:56:08.369Z,953.16
2019-03-02T22:58:34.724Z,953.14
2019-03-02T23:01:01.031Z,953.23
2019-03-02T23:03:27.343Z,953.20
2019-03-02T23:05:53.674Z,953.16
2019-03-02T23:08:19.973Z,953.18
2019-03-02T23:10:46.279Z,953.13
2019-03-02T23:13:12.585Z,953.13
2019-03-02T23:15:38.899Z,953.11
2019-03-02T23:18:05.208Z,953.19
2019-03-02T23:20:31.518Z,953.30
2019-03-02T23:22:57.829Z,953.22
2019-03-02T23:25:24.137Z,953.18
2019-03-02T23:27:50.446Z,953.12
2019-03-02T23:30:16.753Z,953.18
2019-03-02T23:32:43.067Z,953.17
2019-03-02T23:35:09.375Z,953.21
2019-03-02T23:37:35.707Z,953.21
2019-03-02T23:40:02.022Z,953.21
2019-03-02T23:42:28.332Z,953.27
2019-03-02T23:44:54.641Z,953.30
2019-03-02T23:47:20.957Z,953.29
2019-03-02T23:49:47.265Z,953.31
2019-03-02T23:52:13.577Z,953.35
2019-03-02T23:54:39.892Z,953.32
2019-03-02T23:57:06.239Z,953.31
2019-03-02T23:59:32.560Z,953.35
